sensor_id;sensor_type;location;lat;lon;timestamp;temperature;humidity
18446;DHT22;9352;50.888;4.466;2023-07-31T00:01:57;17.20;99.90
18446;DHT22;9352;50.888;4.466;2023-07-31T00:04:24;17.20;99.90
18446;DHT22;9352;50.888;4.466;2023-07-31T00:06:50;17.20;99.90
18446;DHT22;9352;50.888;4.466;2023-07-31T00:09:17;17.20;99.90
18446;DHT22;9352;50.888;4.466;2023-07-31T00:11:45;17.30;99.90
18446;DHT22;9352;50.888;4.466;2023-07-31T00:14:13;17.30;99.90
18446;DHT22;9352;50.888;4.466;2023-07-31T00:16:40;17.30;99.90
18446;DHT22;9352;50.888;4.466;2023-07-31T00:19:07;17.40;99.90
18446;DHT22;9352;50.888;4.466;2023-07-31T00:21:33;17.40;99.90
18446;DHT22;9352;50.888;4.466;2023-07-31T00:24:00;17.50;99.90
18446;DHT22;9352;50.888;4.466;2023-07-31T00:26:27;17.50;99.90
18446;DHT22;9352;50.888;4.466;2023-07-31T00:28:53;17.50;99.90
18446;DHT22;9352;50.888;4.466;2023-07-31T00:31:21;17.50;99.90
18446;DHT22;9352;50.888;4.466;2023-07-31T00:33:48;17.50;99.90
18446;DHT22;9352;50.888;4.466;2023-07-31T00:36:15;17.50;99.90
18446;DHT22;9352;50.888;4.466;2023-07-31T00:38:43;17.60;99.90
18446;DHT22;9352;50.888;4.466;2023-07-31T00:41:10;17.60;99.90
18446;DHT22;9352;50.888;4.466;2023-07-31T00:43:37;17.60;99.90
18446;DHT22;9352;50.888;4.466;2023-07-31T00:46:04;17.60;99.90
18446;DHT22;9352;50.888;4.466;2023-07-31T00:48:32;17.60;99.90
18446;DHT22;9352;50.888;4.466;2023-07-31T00:51:00;17.60;99.90
18446;DHT22;9352;50.888;4.466;2023-07-31T00:53:28;17.70;99.90
18446;DHT22;9352;50.888;4.466;2023-07-31T00:55:55;17.60;99.90
18446;DHT22;9352;50.888;4.466;2023-07-31T00:58:21;17.70;99.90
18446;DHT22;9352;50.888;4.466;2023-07-31T01:00:49;17.70;99.90
18446;DHT22;9352;50.888;4.466;2023-07-31T01:03:17;17.70;99.90
18446;DHT22;9352;50.888;4.466;2023-07-31T01:05:51;17.60;99.90
18446;DHT22;9352;50.888;4.466;2023-07-31T01:08:32;17.60;99.90
18446;DHT22;9352;50.888;4.466;2023-07-31T01:11:04;17.70;99.90
18446;DHT22;9352;50.888;4.466;2023-07-31T01:13:34;17.70;99.90
18446;DHT22;9352;50.888;4.466;2023-07-31T01:16:01;17.70;99.90
18446;DHT22;9352;50.888;4.466;2023-07-31T01:18:28;17.60;99.90
18446;DHT22;9352;50.888;4.466;2023-07-31T01:21:02;17.60;99.90
18446;DHT22;9352;50.888;4.466;2023-07-31T01:23:51;17.60;99.90
18446;DHT22;9352;50.888;4.466;2023-07-31T01:26:29;17.60;99.90
18446;DHT22;9352;50.888;4.466;2023-07-31T01:29:03;17.50;99.90
18446;DHT22;9352;50.888;4.466;2023-07-31T01:31:32;17.60;99.90
18446;DHT22;9352;50.888;4.466;2023-07-31T01:34:00;17.60;99.90
18446;DHT22;9352;50.888;4.466;2023-07-31T01:36:28;17.60;99.90
18446;DHT22;9352;50.888;4.466;2023-07-31T01:38:58;17.70;99.90
18446;DHT22;9352;50.888;4.466;2023-07-31T01:41:27;17.70;99.90
18446;DHT22;9352;50.888;4.466;2023-07-31T01:43:54;17.70;99.90
18446;DHT22;9352;50.888;4.466;2023-07-31T01:46:21;17.70;99.90
18446;DHT22;9352;50.888;4.466;2023-07-31T01:48:48;17.70;99.90
18446;DHT22;9352;50.888;4.466;2023-07-31T01:51:14;17.70;99.90
18446;DHT22;9352;50.888;4.466;2023-07-31T01:53:41;17.70;99.90
18446;DHT22;9352;50.888;4.466;2023-07-31T01:56:08;17.70;99.90
18446;DHT22;9352;50.888;4.466;2023-07-31T01:58:36;17.70;99.90
18446;DHT22;9352;50.888;4.466;2023-07-31T02:01:03;17.70;99.90
18446;DHT22;9352;50.888;4.466;2023-07-31T02:03:30;17.80;99.90
18446;DHT22;9352;50.888;4.466;2023-07-31T02:05:57;17.80;99.90
18446;DHT22;9352;50.888;4.466;2023-07-31T02:08:24;17.80;99.90
18446;DHT22;9352;50.888;4.466;2023-07-31T02:10:51;17.80;99.90
18446;DHT22;9352;50.888;4.466;2023-07-31T02:13:18;17.80;99.90
18446;DHT22;9352;50.888;4.466;2023-07-31T02:15:46;17.80;99.90
18446;DHT22;9352;50.888;4.466;2023-07-31T02:18:13;17.80;99.90
18446;DHT22;9352;50.888;4.466;2023-07-31T02:20:40;17.90;99.90
18446;DHT22;9352;50.888;4.466;2023-07-31T02:23:07;17.90;99.90
18446;DHT22;9352;50.888;4.466;2023-07-31T02:25:34;17.90;99.90
18446;DHT22;9352;50.888;4.466;2023-07-31T02:28:01;17.90;99.90
18446;DHT22;9352;50.888;4.466;2023-07-31T02:30:28;18.00;99.90
18446;DHT22;9352;50.888;4.466;2023-07-31T02:32:56;17.90;99.90
18446;DHT22;9352;50.888;4.466;2023-07-31T02:35:23;17.90;99.90
18446;DHT22;9352;50.888;4.466;2023-07-31T02:37:50;17.90;99.90
18446;DHT22;9352;50.888;4.466;2023-07-31T02:40:17;18.00;99.90
18446;DHT22;9352;50.888;4.466;2023-07-31T02:42:44;17.90;99.90
18446;DHT22;9352;50.888;4.466;2023-07-31T02:45:10;18.00;99.90
18446;DHT22;9352;50.888;4.466;2023-07-31T02:47:37;17.90;99.90
18446;DHT22;9352;50.888;4.466;2023-07-31T02:50:06;17.90;99.90
18446;DHT22;9352;50.888;4.466;2023-07-31T02:52:33;17.90;99.90
18446;DHT22;9352;50.888;4.466;2023-07-31T02:55:00;17.90;99.90
18446;DHT22;9352;50.888;4.466;2023-07-31T02:57:27;17.90;99.90
18446;DHT22;9352;50.888;4.466;2023-07-31T02:59:54;17.90;99.90
18446;DHT22;9352;50.888;4.466;2023-07-31T03:02:21;17.90;99.90
18446;DHT22;9352;50.888;4.466;2023-07-31T03:04:48;17.90;99.90
18446;DHT22;9352;50.888;4.466;2023-07-31T03:07:16;18.00;99.90
18446;DHT22;9352;50.888;4.466;2023-07-31T03:09:43;17.90;99.90
18446;DHT22;9352;50.888;4.466;2023-07-31T03:12:10;17.90;99.90
18446;DHT22;9352;50.888;4.466;2023-07-31T03:14:37;17.90;99.90
18446;DHT22;9352;50.888;4.466;2023-07-31T03:17:04;17.90;99.90
18446;DHT22;9352;50.888;4.466;2023-07-31T03:19:31;17.90;99.90
18446;DHT22;9352;50.888;4.466;2023-07-31T03:21:58;17.90;99.90
18446;DHT22;9352;50.888;4.466;2023-07-31T03:24:27;17.90;99.90
18446;DHT22;9352;50.888;4.466;2023-07-31T03:26:54;17.90;99.90
18446;DHT22;9352;50.888;4.466;2023-07-31T03:29:21;17.90;99.90
18446;DHT22;9352;50.888;4.466;2023-07-31T03:31:48;17.90;99.90
18446;DHT22;9352;50.888;4.466;2023-07-31T03:34:15;17.90;99.90
18446;DHT22;9352;50.888;4.466;2023-07-31T03:36:42;17.90;99.90
18446;DHT22;9352;50.888;4.466;2023-07-31T03:39:09;17.90;99.90
18446;DHT22;9352;50.888;4.466;2023-07-31T03:41:38;17.90;99.90
18446;DHT22;9352;50.888;4.466;2023-07-31T03:44:04;17.80;99.90
18446;DHT22;9352;50.888;4.466;2023-07-31T03:46:31;17.80;99.90
18446;DHT22;9352;50.888;4.466;2023-07-31T03:48:59;17.80;99.90
18446;DHT22;9352;50.888;4.466;2023-07-31T03:51:26;17.80;99.90
18446;DHT22;9352;50.888;4.466;2023-07-31T03:53:53;17.80;99.90
18446;DHT22;9352;50.888;4.466;2023-07-31T03:56:19;17.70;99.90
18446;DHT22;9352;50.888;4.466;2023-07-31T03:58:48;17.70;99.90
18446;DHT22;9352;50.888;4.466;2023-07-31T04:01:14;17.60;99.90
18446;DHT22;9352;50.888;4.466;2023-07-31T04:03:42;17.60;99.90
18446;DHT22;9352;50.888;4.466;2023-07-31T04:06:09;17.60;99.90
18446;DHT22;9352;50.888;4.466;2023-07-31T04:08:36;17.60;99.90
18446;DHT22;9352;50.888;4.466;2023-07-31T04:11:03;17.50;99.90
18446;DHT22;9352;50.888;4.466;2023-07-31T04:13:29;17.50;99.90
18446;DHT22;9352;50.888;4.466;2023-07-31T04:15:58;17.50;99.90
18446;DHT22;9352;50.888;4.466;2023-07-31T04:18:25;17.40;99.90
18446;DHT22;9352;50.888;4.466;2023-07-31T04:20:52;17.40;99.90
18446;DHT22;9352;50.888;4.466;2023-07-31T04:23:19;17.40;99.90
18446;DHT22;9352;50.888;4.466;2023-07-31T04:25:46;17.40;99.90
18446;DHT22;9352;50.888;4.466;2023-07-31T04:28:13;17.40;99.90
18446;DHT22;9352;50.888;4.466;2023-07-31T04:30:40;17.40;99.90
18446;DHT22;9352;50.888;4.466;2023-07-31T04:33:08;17.40;99.90
18446;DHT22;9352;50.888;4.466;2023-07-31T04:35:35;17.40;99.90
18446;DHT22;9352;50.888;4.466;2023-07-31T04:38:02;17.40;99.90
18446;DHT22;9352;50.888;4.466;2023-07-31T04:40:29;17.40;99.90
18446;DHT22;9352;50.888;4.466;2023-07-31T04:42:56;17.50;99.90
18446;DHT22;9352;50.888;4.466;2023-07-31T04:45:23;17.50;99.90
18446;DHT22;9352;50.888;4.466;2023-07-31T04:47:50;17.50;99.90
18446;DHT22;9352;50.888;4.466;2023-07-31T04:50:18;17.50;99.90
18446;DHT22;9352;50.888;4.466;2023-07-31T04:52:45;17.50;99.90
18446;DHT22;9352;50.888;4.466;2023-07-31T04:55:11;17.50;99.90
18446;DHT22;9352;50.888;4.466;2023-07-31T04:57:39;17.60;99.90
18446;DHT22;9352;50.888;4.466;2023-07-31T05:00:07;17.60;99.90
18446;DHT22;9352;50.888;4.466;2023-07-31T05:02:34;17.60;99.90
18446;DHT22;9352;50.888;4.466;2023-07-31T05:05:00;17.60;99.90
18446;DHT22;9352;50.888;4.466;2023-07-31T05:07:29;17.70;99.90
18446;DHT22;9352;50.888;4.466;2023-07-31T05:09:56;17.70;99.90
18446;DHT22;9352;50.888;4.466;2023-07-31T05:12:22;17.70;99.90
18446;DHT22;9352;50.888;4.466;2023-07-31T05:14:49;17.60;99.90
18446;DHT22;9352;50.888;4.466;2023-07-31T05:17:16;17.60;99.90
18446;DHT22;9352;50.888;4.466;2023-07-31T05:19:43;17.60;99.90
18446;DHT22;9352;50.888;4.466;2023-07-31T05:22:10;17.60;99.90
18446;DHT22;9352;50.888;4.466;2023-07-31T05:24:38;17.50;99.90
18446;DHT22;9352;50.888;4.466;2023-07-31T05:27:06;17.40;99.90
18446;DHT22;9352;50.888;4.466;2023-07-31T05:29:33;17.40;99.90
18446;DHT22;9352;50.888;4.466;2023-07-31T05:32:00;17.30;99.90
18446;DHT22;9352;50.888;4.466;2023-07-31T05:34:27;17.30;99.90
18446;DHT22;9352;50.888;4.466;2023-07-31T05:36:54;17.30;99.90
18446;DHT22;9352;50.888;4.466;2023-07-31T05:39:20;17.30;99.90
18446;DHT22;9352;50.888;4.466;2023-07-31T05:41:49;17.30;99.90
18446;DHT22;9352;50.888;4.466;2023-07-31T05:44:16;17.30;99.90
18446;DHT22;9352;50.888;4.466;2023-07-31T05:46:42;17.30;99.90
18446;DHT22;9352;50.888;4.466;2023-07-31T05:49:09;17.30;99.90
18446;DHT22;9352;50.888;4.466;2023-07-31T05:51:36;17.20;99.90
18446;DHT22;9352;50.888;4.466;2023-07-31T05:54:03;17.30;99.90
18446;DHT22;9352;50.888;4.466;2023-07-31T05:56:30;17.30;99.90
18446;DHT22;9352;50.888;4.466;2023-07-31T05:59:00;17.30;99.90
18446;DHT22;9352;50.888;4.466;2023-07-31T06:01:28;17.30;99.90
18446;DHT22;9352;50.888;4.466;2023-07-31T06:03:55;17.30;99.90
18446;DHT22;9352;50.888;4.466;2023-07-31T06:06:22;17.30;99.90
18446;DHT22;9352;50.888;4.466;2023-07-31T06:08:49;17.30;99.90
18446;DHT22;9352;50.888;4.466;2023-07-31T06:11:16;17.40;99.90
18446;DHT22;9352;50.888;4.466;2023-07-31T06:13:43;17.50;99.90
18446;DHT22;9352;50.888;4.466;2023-07-31T06:16:14;17.50;99.90
18446;DHT22;9352;50.888;4.466;2023-07-31T06:18:41;17.60;99.90
18446;DHT22;9352;50.888;4.466;2023-07-31T06:21:08;17.60;99.90
18446;DHT22;9352;50.888;4.466;2023-07-31T06:23:35;17.70;99.90
18446;DHT22;9352;50.888;4.466;2023-07-31T06:26:02;17.70;99.90
18446;DHT22;9352;50.888;4.466;2023-07-31T06:28:30;17.70;99.90
18446;DHT22;9352;50.888;4.466;2023-07-31T06:30:57;17.70;99.90
18446;DHT22;9352;50.888;4.466;2023-07-31T06:33:25;17.80;99.90
18446;DHT22;9352;50.888;4.466;2023-07-31T06:35:53;17.90;99.90
18446;DHT22;9352;50.888;4.466;2023-07-31T06:38:22;17.90;99.90
18446;DHT22;9352;50.888;4.466;2023-07-31T06:40:50;17.90;99.90
18446;DHT22;9352;50.888;4.466;2023-07-31T06:43:17;18.00;99.90
18446;DHT22;9352;50.888;4.466;2023-07-31T06:45:44;18.10;99.90
18446;DHT22;9352;50.888;4.466;2023-07-31T06:48:12;18.20;99.90
18446;DHT22;9352;50.888;4.466;2023-07-31T06:50:40;18.20;99.90
18446;DHT22;9352;50.888;4.466;2023-07-31T06:53:07;18.30;99.90
18446;DHT22;9352;50.888;4.466;2023-07-31T06:55:34;18.40;99.90
18446;DHT22;9352;50.888;4.466;2023-07-31T06:58:01;18.50;99.90
18446;DHT22;9352;50.888;4.466;2023-07-31T07:00:28;18.50;99.90
18446;DHT22;9352;50.888;4.466;2023-07-31T07:02:55;18.70;99.90
18446;DHT22;9352;50.888;4.466;2023-07-31T07:05:22;18.70;99.90
18446;DHT22;9352;50.888;4.466;2023-07-31T07:07:50;18.80;99.90
18446;DHT22;9352;50.888;4.466;2023-07-31T07:10:18;18.80;99.90
18446;DHT22;9352;50.888;4.466;2023-07-31T07:12:45;19.00;99.90
18446;DHT22;9352;50.888;4.466;2023-07-31T07:15:12;19.10;99.90
18446;DHT22;9352;50.888;4.466;2023-07-31T07:17:39;19.30;99.90
18446;DHT22;9352;50.888;4.466;2023-07-31T07:20:07;19.50;99.90
18446;DHT22;9352;50.888;4.466;2023-07-31T07:22:34;19.50;99.90
18446;DHT22;9352;50.888;4.466;2023-07-31T07:25:03;19.40;99.90
18446;DHT22;9352;50.888;4.466;2023-07-31T07:27:30;19.50;99.90
18446;DHT22;9352;50.888;4.466;2023-07-31T07:29:57;19.70;99.90
18446;DHT22;9352;50.888;4.466;2023-07-31T07:32:24;19.50;99.90
18446;DHT22;9352;50.888;4.466;2023-07-31T07:34:51;19.30;99.90
18446;DHT22;9352;50.888;4.466;2023-07-31T07:37:18;19.30;99.90
18446;DHT22;9352;50.888;4.466;2023-07-31T07:39:45;19.20;99.90
18446;DHT22;9352;50.888;4.466;2023-07-31T07:42:13;19.30;99.90
18446;DHT22;9352;50.888;4.466;2023-07-31T07:44:40;19.30;99.90
18446;DHT22;9352;50.888;4.466;2023-07-31T07:47:07;19.30;99.90
18446;DHT22;9352;50.888;4.466;2023-07-31T07:49:34;19.40;99.90
18446;DHT22;9352;50.888;4.466;2023-07-31T07:52:02;19.40;99.90
18446;DHT22;9352;50.888;4.466;2023-07-31T07:54:29;19.40;99.90
18446;DHT22;9352;50.888;4.466;2023-07-31T07:56:56;19.50;99.90
18446;DHT22;9352;50.888;4.466;2023-07-31T07:59:24;19.50;99.90
18446;DHT22;9352;50.888;4.466;2023-07-31T08:01:51;19.60;99.90
18446;DHT22;9352;50.888;4.466;2023-07-31T08:04:18;19.60;99.90
18446;DHT22;9352;50.888;4.466;2023-07-31T08:06:45;19.60;99.90
18446;DHT22;9352;50.888;4.466;2023-07-31T08:09:12;19.40;99.90
18446;DHT22;9352;50.888;4.466;2023-07-31T08:11:39;19.50;99.90
18446;DHT22;9352;50.888;4.466;2023-07-31T08:14:06;19.50;99.90
18446;DHT22;9352;50.888;4.466;2023-07-31T08:16:34;19.50;99.90
18446;DHT22;9352;50.888;4.466;2023-07-31T08:19:01;19.70;99.90
18446;DHT22;9352;50.888;4.466;2023-07-31T08:21:28;19.70;99.90
18446;DHT22;9352;50.888;4.466;2023-07-31T08:23:55;19.70;99.90
18446;DHT22;9352;50.888;4.466;2023-07-31T08:26:22;19.90;99.90
18446;DHT22;9352;50.888;4.466;2023-07-31T08:28:49;20.00;99.90
18446;DHT22;9352;50.888;4.466;2023-07-31T08:31:16;19.90;99.90
18446;DHT22;9352;50.888;4.466;2023-07-31T08:33:45;19.90;99.90
18446;DHT22;9352;50.888;4.466;2023-07-31T08:36:12;20.00;99.90
18446;DHT22;9352;50.888;4.466;2023-07-31T08:38:39;19.90;99.90
18446;DHT22;9352;50.888;4.466;2023-07-31T08:41:05;19.70;99.90
18446;DHT22;9352;50.888;4.466;2023-07-31T08:43:32;19.90;99.90
18446;DHT22;9352;50.888;4.466;2023-07-31T08:46:00;19.90;99.90
18446;DHT22;9352;50.888;4.466;2023-07-31T08:48:28;19.90;99.90
18446;DHT22;9352;50.888;4.466;2023-07-31T08:50:57;19.80;99.90
18446;DHT22;9352;50.888;4.466;2023-07-31T08:53:24;19.70;99.90
18446;DHT22;9352;50.888;4.466;2023-07-31T08:55:52;19.70;99.90
18446;DHT22;9352;50.888;4.466;2023-07-31T08:58:19;19.70;99.90
18446;DHT22;9352;50.888;4.466;2023-07-31T09:00:47;19.60;99.90
18446;DHT22;9352;50.888;4.466;2023-07-31T09:03:15;19.50;99.90
18446;DHT22;9352;50.888;4.466;2023-07-31T09:05:44;19.40;99.90
18446;DHT22;9352;50.888;4.466;2023-07-31T09:08:13;19.50;99.90
18446;DHT22;9352;50.888;4.466;2023-07-31T09:10:42;19.50;99.90
18446;DHT22;9352;50.888;4.466;2023-07-31T09:13:09;19.60;99.90
18446;DHT22;9352;50.888;4.466;2023-07-31T09:15:36;19.70;99.90
18446;DHT22;9352;50.888;4.466;2023-07-31T09:18:05;19.80;99.90
18446;DHT22;9352;50.888;4.466;2023-07-31T09:20:32;19.80;99.90
18446;DHT22;9352;50.888;4.466;2023-07-31T09:23:06;19.90;99.90
18446;DHT22;9352;50.888;4.466;2023-07-31T09:25:36;19.90;99.90
18446;DHT22;9352;50.888;4.466;2023-07-31T09:28:05;20.00;99.90
18446;DHT22;9352;50.888;4.466;2023-07-31T09:30:44;20.20;99.90
18446;DHT22;9352;50.888;4.466;2023-07-31T09:33:12;20.40;99.90
18446;DHT22;9352;50.888;4.466;2023-07-31T09:35:39;20.70;99.90
18446;DHT22;9352;50.888;4.466;2023-07-31T09:38:07;21.20;99.90
18446;DHT22;9352;50.888;4.466;2023-07-31T09:40:36;21.00;99.90
18446;DHT22;9352;50.888;4.466;2023-07-31T09:43:05;20.90;99.90
18446;DHT22;9352;50.888;4.466;2023-07-31T09:45:34;20.80;99.90
18446;DHT22;9352;50.888;4.466;2023-07-31T09:48:02;20.70;99.90
18446;DHT22;9352;50.888;4.466;2023-07-31T09:50:30;20.80;99.90
18446;DHT22;9352;50.888;4.466;2023-07-31T09:52:57;20.90;99.90
18446;DHT22;9352;50.888;4.466;2023-07-31T09:55:24;20.90;99.90
18446;DHT22;9352;50.888;4.466;2023-07-31T09:57:55;20.90;99.90
18446;DHT22;9352;50.888;4.466;2023-07-31T10:00:24;20.70;99.90
18446;DHT22;9352;50.888;4.466;2023-07-31T10:02:54;20.50;99.90
18446;DHT22;9352;50.888;4.466;2023-07-31T10:05:30;20.50;99.90
18446;DHT22;9352;50.888;4.466;2023-07-31T10:07:58;20.60;99.90
18446;DHT22;9352;50.888;4.466;2023-07-31T10:10:27;20.40;99.90
18446;DHT22;9352;50.888;4.466;2023-07-31T10:12:56;20.30;99.90
18446;DHT22;9352;50.888;4.466;2023-07-31T10:15:24;20.30;99.90
18446;DHT22;9352;50.888;4.466;2023-07-31T10:17:52;20.30;99.90
18446;DHT22;9352;50.888;4.466;2023-07-31T10:20:21;20.30;99.90
18446;DHT22;9352;50.888;4.466;2023-07-31T10:22:49;20.30;99.90
18446;DHT22;9352;50.888;4.466;2023-07-31T10:25:16;20.50;99.90
18446;DHT22;9352;50.888;4.466;2023-07-31T10:27:45;20.80;99.90
18446;DHT22;9352;50.888;4.466;2023-07-31T10:30:17;20.90;99.90
18446;DHT22;9352;50.888;4.466;2023-07-31T10:32:45;21.10;99.90
18446;DHT22;9352;50.888;4.466;2023-07-31T10:35:15;21.20;99.90
18446;DHT22;9352;50.888;4.466;2023-07-31T10:37:42;21.10;99.90
18446;DHT22;9352;50.888;4.466;2023-07-31T10:40:11;21.30;99.90
18446;DHT22;9352;50.888;4.466;2023-07-31T10:42:45;21.40;99.90
18446;DHT22;9352;50.888;4.466;2023-07-31T10:45:23;21.20;99.90
18446;DHT22;9352;50.888;4.466;2023-07-31T10:47:58;21.10;99.90
18446;DHT22;9352;50.888;4.466;2023-07-31T10:50:26;20.90;99.90
18446;DHT22;9352;50.888;4.466;2023-07-31T10:52:54;21.00;99.90
18446;DHT22;9352;50.888;4.466;2023-07-31T10:55:27;21.10;99.90
18446;DHT22;9352;50.888;4.466;2023-07-31T10:57:55;21.10;99.90
18446;DHT22;9352;50.888;4.466;2023-07-31T11:00:26;21.00;99.90
18446;DHT22;9352;50.888;4.466;2023-07-31T11:03:00;21.30;99.90
18446;DHT22;9352;50.888;4.466;2023-07-31T11:05:44;21.50;99.90
18446;DHT22;9352;50.888;4.466;2023-07-31T11:08:13;21.40;99.90
18446;DHT22;9352;50.888;4.466;2023-07-31T11:10:41;21.30;99.90
18446;DHT22;9352;50.888;4.466;2023-07-31T11:13:08;21.30;99.90
18446;DHT22;9352;50.888;4.466;2023-07-31T11:15:36;21.40;99.90
18446;DHT22;9352;50.888;4.466;2023-07-31T11:18:03;21.50;99.90
18446;DHT22;9352;50.888;4.466;2023-07-31T11:20:32;21.60;99.90
18446;DHT22;9352;50.888;4.466;2023-07-31T11:23:00;21.60;99.90
18446;DHT22;9352;50.888;4.466;2023-07-31T11:25:29;21.80;99.90
18446;DHT22;9352;50.888;4.466;2023-07-31T11:27:57;22.00;99.90
18446;DHT22;9352;50.888;4.466;2023-07-31T11:30:24;22.00;99.90
18446;DHT22;9352;50.888;4.466;2023-07-31T11:32:52;22.00;99.90
18446;DHT22;9352;50.888;4.466;2023-07-31T11:35:19;21.90;99.90
18446;DHT22;9352;50.888;4.466;2023-07-31T11:37:46;21.90;99.90
18446;DHT22;9352;50.888;4.466;2023-07-31T11:40:14;21.90;99.90
18446;DHT22;9352;50.888;4.466;2023-07-31T11:42:41;22.10;99.90
18446;DHT22;9352;50.888;4.466;2023-07-31T11:45:09;22.00;99.90
18446;DHT22;9352;50.888;4.466;2023-07-31T11:47:37;21.80;99.90
18446;DHT22;9352;50.888;4.466;2023-07-31T11:50:07;21.50;99.90
18446;DHT22;9352;50.888;4.466;2023-07-31T11:52:39;21.40;99.90
18446;DHT22;9352;50.888;4.466;2023-07-31T11:55:08;21.40;99.90
18446;DHT22;9352;50.888;4.466;2023-07-31T11:57:37;21.30;99.90
18446;DHT22;9352;50.888;4.466;2023-07-31T12:00:06;21.30;99.90
18446;DHT22;9352;50.888;4.466;2023-07-31T12:02:35;21.50;99.90
18446;DHT22;9352;50.888;4.466;2023-07-31T12:05:02;21.50;99.90
18446;DHT22;9352;50.888;4.466;2023-07-31T12:07:47;21.60;99.90
18446;DHT22;9352;50.888;4.466;2023-07-31T12:10:27;21.60;99.90
18446;DHT22;9352;50.888;4.466;2023-07-31T12:13:00;21.80;99.90
18446;DHT22;9352;50.888;4.466;2023-07-31T12:15:33;22.00;99.90
18446;DHT22;9352;50.888;4.466;2023-07-31T12:18:01;22.10;99.90
18446;DHT22;9352;50.888;4.466;2023-07-31T12:20:30;22.00;99.90
18446;DHT22;9352;50.888;4.466;2023-07-31T12:22:59;22.00;99.90
18446;DHT22;9352;50.888;4.466;2023-07-31T12:25:30;21.90;99.90
18446;DHT22;9352;50.888;4.466;2023-07-31T12:27:58;21.80;99.90
18446;DHT22;9352;50.888;4.466;2023-07-31T12:30:28;21.80;99.90
18446;DHT22;9352;50.888;4.466;2023-07-31T12:32:55;21.90;99.90
18446;DHT22;9352;50.888;4.466;2023-07-31T12:35:22;22.00;99.90
18446;DHT22;9352;50.888;4.466;2023-07-31T12:37:49;22.20;99.90
18446;DHT22;9352;50.888;4.466;2023-07-31T12:40:17;22.10;99.90
18446;DHT22;9352;50.888;4.466;2023-07-31T12:42:44;22.20;99.90
18446;DHT22;9352;50.888;4.466;2023-07-31T12:45:11;22.30;99.90
18446;DHT22;9352;50.888;4.466;2023-07-31T12:47:38;22.20;99.90
18446;DHT22;9352;50.888;4.466;2023-07-31T12:50:06;22.30;99.90
18446;DHT22;9352;50.888;4.466;2023-07-31T12:52:33;22.20;99.90
18446;DHT22;9352;50.888;4.466;2023-07-31T12:55:00;22.40;99.90
18446;DHT22;9352;50.888;4.466;2023-07-31T12:57:28;22.50;99.90
18446;DHT22;9352;50.888;4.466;2023-07-31T12:59:56;22.50;99.90
18446;DHT22;9352;50.888;4.466;2023-07-31T13:02:22;22.30;99.90
18446;DHT22;9352;50.888;4.466;2023-07-31T13:04:50;22.20;99.90
18446;DHT22;9352;50.888;4.466;2023-07-31T13:07:17;21.90;99.90
18446;DHT22;9352;50.888;4.466;2023-07-31T13:09:44;21.60;99.90
18446;DHT22;9352;50.888;4.466;2023-07-31T13:12:10;21.40;99.90
18446;DHT22;9352;50.888;4.466;2023-07-31T13:14:39;21.30;99.90
18446;DHT22;9352;50.888;4.466;2023-07-31T13:17:06;21.30;99.90
18446;DHT22;9352;50.888;4.466;2023-07-31T13:19:32;21.20;99.90
18446;DHT22;9352;50.888;4.466;2023-07-31T13:21:59;21.20;99.90
18446;DHT22;9352;50.888;4.466;2023-07-31T13:24:26;21.00;99.90
18446;DHT22;9352;50.888;4.466;2023-07-31T13:26:53;20.90;99.90
18446;DHT22;9352;50.888;4.466;2023-07-31T13:29:20;20.90;99.90
18446;DHT22;9352;50.888;4.466;2023-07-31T13:31:48;20.90;99.90
18446;DHT22;9352;50.888;4.466;2023-07-31T13:34:15;20.80;99.90
18446;DHT22;9352;50.888;4.466;2023-07-31T13:36:42;20.60;99.90
18446;DHT22;9352;50.888;4.466;2023-07-31T13:39:09;20.30;99.90
18446;DHT22;9352;50.888;4.466;2023-07-31T13:41:36;20.10;99.90
18446;DHT22;9352;50.888;4.466;2023-07-31T13:44:03;19.90;99.90
18446;DHT22;9352;50.888;4.466;2023-07-31T13:46:30;19.90;99.90
18446;DHT22;9352;50.888;4.466;2023-07-31T13:48:59;19.80;99.90
18446;DHT22;9352;50.888;4.466;2023-07-31T13:51:27;19.70;99.90
18446;DHT22;9352;50.888;4.466;2023-07-31T13:53:54;19.70;99.90
18446;DHT22;9352;50.888;4.466;2023-07-31T13:56:21;19.60;99.90
18446;DHT22;9352;50.888;4.466;2023-07-31T13:58:48;19.60;99.90
18446;DHT22;9352;50.888;4.466;2023-07-31T14:01:14;19.60;99.90
18446;DHT22;9352;50.888;4.466;2023-07-31T14:03:41;19.50;99.90
18446;DHT22;9352;50.888;4.466;2023-07-31T14:06:10;19.40;99.90
18446;DHT22;9352;50.888;4.466;2023-07-31T14:08:36;19.40;99.90
18446;DHT22;9352;50.888;4.466;2023-07-31T14:11:03;19.40;99.90
18446;DHT22;9352;50.888;4.466;2023-07-31T14:13:30;19.40;99.90
18446;DHT22;9352;50.888;4.466;2023-07-31T14:15:57;19.40;99.90
18446;DHT22;9352;50.888;4.466;2023-07-31T14:18:24;19.40;99.90
18446;DHT22;9352;50.888;4.466;2023-07-31T14:20:51;19.40;99.90
18446;DHT22;9352;50.888;4.466;2023-07-31T14:23:20;19.40;99.90
18446;DHT22;9352;50.888;4.466;2023-07-31T14:25:47;19.40;99.90
18446;DHT22;9352;50.888;4.466;2023-07-31T14:28:13;19.40;99.90
18446;DHT22;9352;50.888;4.466;2023-07-31T14:30:40;19.40;99.90
18446;DHT22;9352;50.888;4.466;2023-07-31T14:33:07;19.50;99.90
18446;DHT22;9352;50.888;4.466;2023-07-31T14:35:34;19.50;99.90
18446;DHT22;9352;50.888;4.466;2023-07-31T14:38:01;19.50;99.90
18446;DHT22;9352;50.888;4.466;2023-07-31T14:40:29;19.60;99.90
18446;DHT22;9352;50.888;4.466;2023-07-31T14:42:56;19.40;99.90
18446;DHT22;9352;50.888;4.466;2023-07-31T14:45:23;19.40;99.90
18446;DHT22;9352;50.888;4.466;2023-07-31T14:47:50;19.40;99.90
18446;DHT22;9352;50.888;4.466;2023-07-31T14:50:19;19.30;99.90
18446;DHT22;9352;50.888;4.466;2023-07-31T14:52:46;19.20;99.90
18446;DHT22;9352;50.888;4.466;2023-07-31T14:55:13;19.20;99.90
18446;DHT22;9352;50.888;4.466;2023-07-31T14:57:41;19.30;99.90
18446;DHT22;9352;50.888;4.466;2023-07-31T15:00:09;19.40;99.90
18446;DHT22;9352;50.888;4.466;2023-07-31T15:02:36;19.40;99.90
18446;DHT22;9352;50.888;4.466;2023-07-31T15:05:04;19.40;99.90
18446;DHT22;9352;50.888;4.466;2023-07-31T15:07:31;19.40;99.90
18446;DHT22;9352;50.888;4.466;2023-07-31T15:09:58;19.30;99.90
18446;DHT22;9352;50.888;4.466;2023-07-31T15:12:25;19.30;99.90
18446;DHT22;9352;50.888;4.466;2023-07-31T15:14:54;19.30;99.90
18446;DHT22;9352;50.888;4.466;2023-07-31T15:17:21;19.30;99.90
18446;DHT22;9352;50.888;4.466;2023-07-31T15:19:48;19.30;99.90
18446;DHT22;9352;50.888;4.466;2023-07-31T15:22:15;19.30;99.90
18446;DHT22;9352;50.888;4.466;2023-07-31T15:24:42;19.20;99.90
18446;DHT22;9352;50.888;4.466;2023-07-31T15:27:09;19.20;99.90
18446;DHT22;9352;50.888;4.466;2023-07-31T15:29:36;19.20;99.90
18446;DHT22;9352;50.888;4.466;2023-07-31T15:32:05;19.30;99.90
18446;DHT22;9352;50.888;4.466;2023-07-31T15:34:32;19.30;99.90
18446;DHT22;9352;50.888;4.466;2023-07-31T15:36:59;19.30;99.90
18446;DHT22;9352;50.888;4.466;2023-07-31T15:39:26;19.30;99.90
18446;DHT22;9352;50.888;4.466;2023-07-31T15:41:53;19.30;99.90
18446;DHT22;9352;50.888;4.466;2023-07-31T15:44:20;19.30;99.90
18446;DHT22;9352;50.888;4.466;2023-07-31T15:46:47;19.20;99.90
18446;DHT22;9352;50.888;4.466;2023-07-31T15:49:16;19.20;99.90